createdAt,value
2018-10-09T00:00:25.021Z,27.41
2018-10-09T00:01:28.360Z,27.34
2018-10-09T00:02:28.610Z,27.39
2018-10-09T00:03:26.159Z,27.46
2018-10-09T00:05:27.875Z,27.51
2018-10-09T00:06:27.733Z,27.42
2018-10-09T00:08:26.403Z,27.45
2018-10-09T00:09:23.320Z,27.51
2018-10-09T00:10:27.017Z,27.67
2018-10-09T00:11:24.496Z,27.62
2018-10-09T00:12:18.325Z,27.54
2018-10-09T00:13:19.378Z,27.45
2018-10-09T00:14:30.925Z,27.44
2018-10-09T00:15:27.156Z,27.39
2018-10-09T00:17:30.538Z,27.49
2018-10-09T00:18:25.425Z,27.55
2018-10-09T00:20:26.980Z,27.65
2018-10-09T00:21:24.930Z,27.68
2018-10-09T00:22:24.534Z,27.62
2018-10-09T00:23:24.430Z,27.68
2018-10-09T00:24:28.429Z,27.65
2018-10-09T00:25:23.109Z,27.62
2018-10-09T00:26:23.741Z,27.65
2018-10-09T00:27:25.164Z,27.52
2018-10-09T00:28:25.990Z,27.61
2018-10-09T00:29:25.590Z,27.58
2018-10-09T00:30:27.547Z,27.58
2018-10-09T00:31:27.385Z,27.55
2018-10-09T00:33:24.393Z,27.48
2018-10-09T00:34:26.746Z,27.52
2018-10-09T00:36:27.390Z,27.80
2018-10-09T00:37:37.008Z,27.77
2018-10-09T00:38:29.130Z,27.82
2018-10-09T00:40:22.274Z,27.93
2018-10-09T00:41:28.840Z,27.86
2018-10-09T00:43:20.959Z,27.77
2018-10-09T00:44:25.275Z,27.80
2018-10-09T00:45:24.061Z,27.74
2018-10-09T00:46:24.971Z,27.70
2018-10-09T00:47:29.886Z,27.77
2018-10-09T00:48:25.289Z,27.89
2018-10-09T00:49:28.887Z,27.92
2018-10-09T00:50:25.822Z,27.89
2018-10-09T00:53:24.805Z,28.04
2018-10-09T00:54:28.407Z,27.97
2018-10-09T00:55:29.015Z,27.93
2018-10-09T00:56:22.569Z,27.74
2018-10-09T00:57:22.685Z,27.68
2018-10-09T00:58:27.390Z,27.82
2018-10-09T01:00:32.116Z,27.90
2018-10-09T01:01:24.347Z,27.98
2018-10-09T01:02:25.371Z,27.98
2018-10-09T01:03:24.249Z,27.95
2018-10-09T01:04:18.749Z,28.01
2018-10-09T01:05:26.874Z,28.07
2018-10-09T01:06:21.706Z,28.11
2018-10-09T01:07:20.995Z,28.05
2018-10-09T01:08:25.609Z,28.08
2018-10-09T01:09:27.357Z,28.09
2018-10-09T01:10:19.403Z,28.27
2018-10-09T01:11:22.862Z,28.22
2018-10-09T01:12:26.911Z,28.17
2018-10-09T01:13:32.406Z,28.19
2018-10-09T01:14:26.983Z,28.22
2018-10-09T01:15:29.343Z,28.27
2018-10-09T01:16:31.406Z,28.32
2018-10-09T01:17:24.914Z,28.26
2018-10-09T01:18:28.436Z,28.34
2018-10-09T01:20:28.498Z,28.30
2018-10-09T01:21:24.562Z,28.23
2018-10-09T01:22:27.429Z,28.23
2018-10-09T01:23:25.288Z,28.23
2018-10-09T01:25:26.421Z,28.14
2018-10-09T01:26:26.532Z,28.12
2018-10-09T01:27:27.253Z,28.34
2018-10-09T01:28:19.484Z,28.30
2018-10-09T01:29:26.249Z,28.29
2018-10-09T01:30:28.227Z,28.22
2018-10-09T01:33:34.762Z,28.09
2018-10-09T01:35:29.348Z,28.08
2018-10-09T01:36:36.913Z,28.19
2018-10-09T01:37:24.142Z,28.22
2018-10-09T01:38:28.854Z,28.29
2018-10-09T01:39:30.594Z,28.42
2018-10-09T01:40:28.465Z,28.41
2018-10-09T01:41:28.420Z,28.58
2018-10-09T01:42:28.781Z,28.60
2018-10-09T01:44:27.683Z,28.66
2018-10-09T01:45:22.435Z,28.72
2018-10-09T01:46:28.074Z,28.78
2018-10-09T01:47:21.424Z,28.78
2018-10-09T01:48:29.428Z,28.78
2018-10-09T01:49:27.078Z,28.78
2018-10-09T01:50:30.359Z,28.93
2018-10-09T01:51:26.882Z,28.88
2018-10-09T01:52:26.789Z,28.91
2018-10-09T01:53:28.536Z,29.05
2018-10-09T01:54:32.227Z,29.01
2018-10-09T01:55:23.727Z,29.14
2018-10-09T01:56:25.169Z,29.10
2018-10-09T01:57:25.069Z,29.05
2018-10-09T01:59:26.208Z,29.11
2018-10-09T02:00:31.231Z,29.13
2018-10-09T02:01:25.716Z,29.16
2018-10-09T02:02:23.871Z,29.23
2018-10-09T02:03:29.001Z,29.17
2018-10-09T02:04:27.269Z,29.23
2018-10-09T02:05:31.369Z,29.21
2018-10-09T02:06:26.435Z,29.21
2018-10-09T02:07:29.940Z,29.13
2018-10-09T02:08:20.935Z,29.11
2018-10-09T02:09:30.975Z,29.16
2018-10-09T02:10:29.038Z,29.16
2018-10-09T02:11:27.602Z,29.25
2018-10-09T02:13:32.637Z,29.07
2018-10-09T02:14:32.232Z,29.10
2018-10-09T02:15:23.535Z,29.13
2018-10-09T02:16:28.768Z,29.21
2018-10-09T02:17:30.305Z,29.19
2018-10-09T02:19:35.749Z,29.23
2018-10-09T02:20:30.024Z,29.31
2018-10-09T02:21:29.921Z,29.29
2018-10-09T02:23:22.449Z,29.25
2018-10-09T02:24:23.800Z,29.21
2018-10-09T02:25:31.951Z,29.31
2018-10-09T02:26:29.951Z,29.33
2018-10-09T02:27:27.911Z,29.28
2018-10-09T02:28:29.756Z,29.38
2018-10-09T02:29:28.129Z,29.41
2018-10-09T02:30:26.799Z,29.26
2018-10-09T02:31:25.959Z,29.44
2018-10-09T02:32:27.322Z,29.50
2018-10-09T02:33:33.740Z,29.50
2018-10-09T02:34:31.020Z,29.62
2018-10-09T02:35:28.568Z,29.63
2018-10-09T02:36:32.262Z,29.73
2018-10-09T02:37:29.997Z,29.79
2018-10-09T02:38:32.067Z,29.78
2018-10-09T02:39:27.248Z,29.84
2018-10-09T02:40:27.869Z,29.87
2018-10-09T02:41:28.925Z,29.88
2018-10-09T02:43:33.311Z,29.88
2018-10-09T02:44:33.953Z,30.00
2018-10-09T02:45:31.961Z,29.95
2018-10-09T02:46:32.436Z,30.07
2018-10-09T02:47:31.308Z,30.10
2018-10-09T02:48:35.284Z,30.09
2018-10-09T02:49:26.396Z,29.94
2018-10-09T02:50:22.413Z,30.00
2018-10-09T02:51:27.014Z,30.09
2018-10-09T02:53:29.804Z,29.95
2018-10-09T02:54:29.070Z,30.12
2018-10-09T02:55:33.496Z,30.12
2018-10-09T02:56:32.063Z,30.25
2018-10-09T02:57:31.047Z,30.24
2018-10-09T02:58:25.646Z,30.36
2018-10-09T02:59:31.047Z,30.16
2018-10-09T03:00:28.104Z,30.21
2018-10-09T03:01:35.175Z,30.22
2018-10-09T03:02:23.696Z,30.22
2018-10-09T03:04:23.207Z,30.20
2018-10-09T03:07:28.239Z,30.43
2018-10-09T03:08:31.660Z,30.56
2018-10-09T03:09:30.473Z,30.44
2018-10-09T03:11:27.974Z,30.50
2018-10-09T03:13:29.500Z,30.47
2018-10-09T03:15:30.026Z,30.65
2018-10-09T03:16:37.208Z,30.72
2018-10-09T03:18:34.038Z,30.70
2018-10-09T03:19:37.831Z,30.75
2018-10-09T03:20:34.454Z,30.81
2018-10-09T03:21:29.239Z,30.78
2018-10-09T03:22:34.777Z,30.85
2018-10-09T03:23:29.256Z,30.87
2018-10-09T03:24:35.711Z,31.04
2018-10-09T03:25:26.979Z,30.91
2018-10-09T03:27:29.681Z,30.87
2018-10-09T03:28:27.842Z,30.93
2018-10-09T03:29:38.300Z,30.88
2018-10-09T03:30:36.769Z,30.89
2018-10-09T03:31:23.986Z,30.88
2018-10-09T03:32:35.553Z,30.93
2018-10-09T03:33:35.350Z,30.87
2018-10-09T03:34:41.489Z,30.89
2018-10-09T03:35:23.488Z,30.88
2018-10-09T03:36:35.167Z,30.89
2018-10-09T03:37:31.376Z,30.96
2018-10-09T03:38:35.787Z,30.94
2018-10-09T03:39:34.665Z,31.06
2018-10-09T03:40:32.941Z,31.02
2018-10-09T03:42:38.943Z,31.09
2018-10-09T03:43:34.891Z,31.16
2018-10-09T03:44:27.738Z,31.18
2018-10-09T03:45:33.884Z,31.19
2018-10-09T03:46:39.927Z,31.16
2018-10-09T03:47:32.993Z,31.15
2018-10-09T03:49:35.346Z,31.25
2018-10-09T03:50:36.570Z,31.19
2018-10-09T03:51:33.005Z,31.14
2018-10-09T03:52:32.896Z,31.11
2018-10-09T03:53:34.644Z,31.21
2018-10-09T03:54:31.374Z,31.19
2018-10-09T03:55:34.550Z,31.26
2018-10-09T03:56:31.182Z,31.31
2018-10-09T03:57:22.709Z,31.24
2018-10-09T03:58:26.498Z,31.30
2018-10-09T03:59:31.709Z,31.33
2018-10-09T04:00:26.497Z,31.36
2018-10-09T04:01:27.426Z,31.40
2018-10-09T04:02:34.803Z,31.33
2018-10-09T04:03:31.429Z,31.37
2018-10-09T04:04:44.636Z,31.37
2018-10-09T04:05:35.333Z,31.40
2018-10-09T04:06:33.185Z,31.49
2018-10-09T04:08:31.056Z,31.40
2018-10-09T04:09:32.601Z,31.44
2018-10-09T04:10:33.304Z,31.44
2018-10-09T04:11:30.349Z,31.51
2018-10-09T04:12:50.909Z,31.49
2018-10-09T04:13:41.616Z,31.49
2018-10-09T04:14:34.864Z,31.49
2018-10-09T04:15:30.009Z,31.38
2018-10-09T04:17:36.011Z,31.48
2018-10-09T04:18:29.980Z,31.40
2018-10-09T04:19:36.541Z,31.46
2018-10-09T04:20:40.017Z,31.51
2018-10-09T04:21:32.451Z,31.46
2018-10-09T04:22:33.484Z,31.51
2018-10-09T04:23:38.394Z,31.48
2018-10-09T04:24:26.933Z,31.53
2018-10-09T04:25:33.519Z,31.68
2018-10-09T04:27:33.606Z,31.59
2018-10-09T04:28:32.792Z,31.52
2018-10-09T04:29:30.796Z,31.43
2018-10-09T04:31:36.198Z,31.43
2018-10-09T04:32:37.527Z,31.59
2018-10-09T04:33:35.074Z,31.52
2018-10-09T04:34:35.796Z,31.55
2018-10-09T04:35:40.081Z,31.52
2018-10-09T04:36:36.532Z,31.59
2018-10-09T04:37:36.325Z,31.66
2018-10-09T04:38:31.323Z,31.73
2018-10-09T04:40:34.300Z,31.80
2018-10-09T04:41:31.843Z,31.78
2018-10-09T04:42:33.898Z,31.91
2018-10-09T04:43:35.947Z,31.91
2018-10-09T04:44:37.707Z,31.89
2018-10-09T04:45:33.233Z,31.90
2018-10-09T04:46:33.715Z,32.01
2018-10-09T04:47:31.530Z,31.91
2018-10-09T04:48:32.033Z,31.90
2018-10-09T04:49:32.529Z,32.01
2018-10-09T04:50:32.915Z,31.97
2018-10-09T04:51:35.179Z,31.98
2018-10-09T04:52:35.189Z,32.11
2018-10-09T04:53:40.414Z,32.06
2018-10-09T04:54:39.518Z,32.11
2018-10-09T04:55:38.682Z,32.09
2018-10-09T04:56:31.724Z,32.16
2018-10-09T04:57:30.538Z,32.20
2018-10-09T04:59:40.445Z,32.27
2018-10-09T05:00:34.625Z,32.25
2018-10-09T05:01:32.367Z,32.30
2018-10-09T05:02:30.122Z,32.27
2018-10-09T05:03:41.500Z,32.23
2018-10-09T05:04:26.556Z,32.24
2018-10-09T05:05:36.077Z,32.23
2018-10-09T05:06:42.635Z,32.25
2018-10-09T05:07:43.059Z,32.20
2018-10-09T05:09:30.270Z,32.31
2018-10-09T05:10:37.947Z,32.37
2018-10-09T05:12:39.402Z,32.30
2018-10-09T05:13:38.793Z,32.20
2018-10-09T05:14:39.404Z,32.19
2018-10-09T05:15:34.093Z,32.24
2018-10-09T05:18:37.272Z,32.27
2018-10-09T05:19:31.555Z,32.31
2018-10-09T05:20:37.708Z,32.43
2018-10-09T05:22:29.129Z,32.49
2018-10-09T05:23:39.558Z,32.35
2018-10-09T05:24:36.497Z,32.23
2018-10-09T05:25:33.013Z,32.15
2018-10-09T05:26:41.524Z,32.08
2018-10-09T05:27:40.401Z,32.11
2018-10-09T05:28:41.129Z,32.19
2018-10-09T05:29:42.568Z,32.25
2018-10-09T05:30:36.432Z,32.33
2018-10-09T05:31:38.020Z,32.34
2018-10-09T05:32:42.280Z,32.23
2018-10-09T05:33:40.948Z,32.25
2018-10-09T05:35:31.129Z,32.24
2018-10-09T05:36:31.244Z,32.23
2018-10-09T05:37:28.056Z,32.18
2018-10-09T05:38:30.277Z,32.19
2018-10-09T05:39:38.939Z,32.23
2018-10-09T05:40:40.053Z,32.30
2018-10-09T05:41:38.633Z,32.27
2018-10-09T05:42:36.902Z,32.18
2018-10-09T05:43:35.563Z,32.27
2018-10-09T05:45:41.537Z,32.28
2018-10-09T05:49:40.432Z,32.28
2018-10-09T05:50:29.584Z,32.23
2018-10-09T05:51:40.239Z,32.27
2018-10-09T05:52:29.001Z,32.30
2018-10-09T05:53:36.043Z,32.33
2018-10-09T05:54:34.724Z,32.43
2018-10-09T05:55:42.404Z,32.45
2018-10-09T05:56:38.314Z,32.47
2018-10-09T05:57:39.554Z,32.60
2018-10-09T05:58:41.807Z,32.56
2018-10-09T06:00:31.579Z,32.60
2018-10-09T06:01:34.855Z,32.53
2018-10-09T06:02:36.104Z,32.50
2018-10-09T06:03:41.937Z,32.52
2018-10-09T06:04:24.966Z,32.53
2018-10-09T06:05:33.664Z,32.49
2018-10-09T06:07:37.566Z,32.71
2018-10-09T06:08:39.722Z,32.67
2018-10-09T06:10:34.810Z,32.71
2018-10-09T06:11:31.083Z,32.82
2018-10-09T06:12:27.755Z,32.84
2018-10-09T06:13:35.580Z,32.86
2018-10-09T06:14:38.631Z,32.79
2018-10-09T06:15:35.614Z,32.83
2018-10-09T06:16:38.588Z,32.86
2018-10-09T06:17:33.332Z,32.96
2018-10-09T06:18:33.729Z,32.96
2018-10-09T06:20:35.794Z,33.05
2018-10-09T06:21:36.735Z,33.06
2018-10-09T06:22:44.805Z,32.96
2018-10-09T06:24:32.093Z,33.02
2018-10-09T06:25:39.014Z,33.05
2018-10-09T06:26:37.911Z,33.11
2018-10-09T06:27:39.519Z,33.09
2018-10-09T06:28:34.624Z,33.16
2018-10-09T06:29:39.943Z,33.06
2018-10-09T06:30:32.590Z,33.09
2018-10-09T06:32:38.829Z,33.12
2018-10-09T06:33:42.116Z,33.09
2018-10-09T06:34:38.642Z,33.04
2018-10-09T06:35:45.505Z,33.12
2018-10-09T06:36:29.124Z,33.16
2018-10-09T06:37:38.603Z,33.12
2018-10-09T06:38:36.118Z,33.14
2018-10-09T06:39:46.151Z,33.20
2018-10-09T06:40:35.111Z,33.24
2018-10-09T06:41:30.709Z,33.24
2018-10-09T06:42:38.752Z,33.27
2018-10-09T06:44:33.700Z,33.16
2018-10-09T06:45:29.177Z,33.18
2018-10-09T06:46:34.222Z,33.11
2018-10-09T06:47:45.144Z,33.17
2018-10-09T06:48:35.036Z,33.06
2018-10-09T06:50:39.647Z,33.12
2018-10-09T06:51:32.080Z,33.23
2018-10-09T06:52:44.677Z,33.21
2018-10-09T06:53:37.133Z,33.36
2018-10-09T06:54:30.490Z,33.36
2018-10-09T06:55:41.109Z,33.40
2018-10-09T06:56:37.223Z,33.47
2018-10-09T06:57:42.605Z,33.43
2018-10-09T06:58:32.607Z,33.41
2018-10-09T06:59:26.902Z,33.41
2018-10-09T07:00:45.540Z,33.41
2018-10-09T07:01:43.289Z,33.49
2018-10-09T07:02:35.111Z,33.46
2018-10-09T07:03:36.764Z,33.55
2018-10-09T07:05:38.441Z,33.52
2018-10-09T07:08:41.610Z,33.52
2018-10-09T07:09:32.178Z,33.55
2018-10-09T07:10:30.614Z,33.46
2018-10-09T07:11:43.010Z,33.27
2018-10-09T07:12:41.099Z,33.17
2018-10-09T07:13:44.693Z,33.09
2018-10-09T07:15:44.000Z,33.29
2018-10-09T07:16:34.127Z,33.24
2018-10-09T07:17:45.234Z,33.39
2018-10-09T07:19:41.042Z,33.46
2018-10-09T07:21:40.753Z,33.55
2018-10-09T07:22:34.622Z,33.55
2018-10-09T07:23:35.227Z,33.58
2018-10-09T07:24:47.837Z,33.44
2018-10-09T07:25:38.631Z,33.40
2018-10-09T07:26:38.623Z,33.33
2018-10-09T07:27:43.774Z,33.43
2018-10-09T07:28:26.043Z,33.43
2018-10-09T07:29:43.641Z,33.43
2018-10-09T07:30:29.840Z,33.54
2018-10-09T07:31:36.400Z,33.59
2018-10-09T07:32:36.206Z,33.55
2018-10-09T07:33:37.852Z,33.59
2018-10-09T07:34:47.075Z,33.63
2018-10-09T07:35:33.629Z,33.56
2018-10-09T07:36:43.079Z,33.56
2018-10-09T07:37:50.268Z,33.52
2018-10-09T07:38:34.494Z,33.34
2018-10-09T07:39:43.820Z,33.31
2018-10-09T07:40:41.570Z,33.37
2018-10-09T07:41:40.141Z,33.40
2018-10-09T07:42:33.188Z,33.40
2018-10-09T07:43:45.310Z,33.50
2018-10-09T07:44:39.145Z,33.55
2018-10-09T07:45:43.644Z,33.68
2018-10-09T07:46:33.208Z,33.63
2018-10-09T07:47:44.376Z,33.56
2018-10-09T07:49:28.715Z,33.61
2018-10-09T07:50:45.932Z,33.71
2018-10-09T07:51:47.267Z,33.80
2018-10-09T07:52:31.146Z,33.80
2018-10-09T07:53:39.598Z,33.78
2018-10-09T07:54:35.405Z,33.78
2018-10-09T07:56:38.395Z,33.78
2018-10-09T07:57:45.875Z,33.73
2018-10-09T07:58:45.526Z,33.78
2018-10-09T08:00:50.653Z,33.41
2018-10-09T08:01:43.022Z,33.40
2018-10-09T08:03:38.438Z,33.44
2018-10-09T08:04:44.929Z,33.23
2018-10-09T08:06:37.523Z,33.28
2018-10-09T08:07:34.874Z,33.43
2018-10-09T08:09:46.654Z,33.44
2018-10-09T08:12:44.729Z,33.55
2018-10-09T08:14:49.248Z,33.49
2018-10-09T08:15:46.789Z,33.50
2018-10-09T08:16:39.741Z,33.56
2018-10-09T08:17:36.567Z,33.68
2018-10-09T08:18:42.915Z,33.73
2018-10-09T08:19:39.345Z,33.74
2018-10-09T08:20:45.167Z,33.76
2018-10-09T08:21:48.569Z,33.89
2018-10-09T08:24:43.165Z,33.99
2018-10-09T08:25:36.840Z,34.03
2018-10-09T08:27:41.546Z,33.96
2018-10-09T08:28:50.141Z,33.95
2018-10-09T08:29:54.850Z,33.90
2018-10-09T08:30:37.163Z,33.73
2018-10-09T08:31:38.132Z,33.71
2018-10-09T08:33:32.666Z,33.80
2018-10-09T08:34:40.727Z,33.73
2018-10-09T08:35:48.748Z,33.74
2018-10-09T08:36:39.346Z,33.80
2018-10-09T08:38:35.168Z,33.71
2018-10-09T08:39:48.170Z,33.71
2018-10-09T08:41:43.769Z,33.74
2018-10-09T08:42:31.890Z,33.74
2018-10-09T08:43:44.702Z,33.80
2018-10-09T08:44:47.586Z,33.78
2018-10-09T08:46:46.462Z,33.77
2018-10-09T08:47:44.207Z,33.85
2018-10-09T08:48:34.291Z,33.84
2018-10-09T08:49:44.128Z,33.93
2018-10-09T08:50:46.077Z,33.96
2018-10-09T08:51:43.514Z,33.92
2018-10-09T08:52:36.761Z,33.92
2018-10-09T08:53:35.251Z,33.95
2018-10-09T08:55:33.429Z,33.93
2018-10-09T08:56:42.729Z,33.89
2018-10-09T08:57:44.880Z,33.74
2018-10-09T08:58:41.513Z,33.77
2018-10-09T08:59:50.624Z,33.76
2018-10-09T09:01:47.461Z,33.65
2018-10-09T09:03:41.261Z,33.65
2018-10-09T09:04:45.686Z,33.61
2018-10-09T09:05:43.498Z,33.58
2018-10-09T09:07:28.148Z,33.54
2018-10-09T09:08:39.624Z,33.65
2018-10-09T09:10:39.189Z,33.55
2018-10-09T09:12:39.847Z,33.56
2018-10-09T09:14:43.258Z,33.54
2018-10-09T09:15:45.400Z,33.44
2018-10-09T09:16:45.188Z,33.39
2018-10-09T09:17:39.688Z,33.43
2018-10-09T09:19:39.885Z,33.39
2018-10-09T09:20:40.599Z,33.44
2018-10-09T09:21:47.712Z,33.41
2018-10-09T09:22:46.566Z,33.36
2018-10-09T09:23:46.706Z,33.43
2018-10-09T09:24:49.232Z,33.33
2018-10-09T09:25:38.177Z,33.39
2018-10-09T09:26:49.775Z,33.33
2018-10-09T09:27:36.711Z,33.31
2018-10-09T09:28:41.200Z,33.29
2018-10-09T09:29:41.708Z,33.29
2018-10-09T09:31:46.309Z,33.21
2018-10-09T09:32:34.839Z,33.16
2018-10-09T09:33:39.211Z,33.11
2018-10-09T09:34:45.193Z,33.11
2018-10-09T09:35:35.992Z,33.17
2018-10-09T09:36:32.822Z,33.14
2018-10-09T09:37:46.132Z,32.99
2018-10-09T09:38:32.018Z,33.04
2018-10-09T09:39:46.970Z,33.11
2018-10-09T09:40:47.216Z,33.05
2018-10-09T09:41:39.499Z,32.96
2018-10-09T09:42:43.197Z,33.04
2018-10-09T09:44:47.097Z,32.96
2018-10-09T09:45:51.035Z,32.98
2018-10-09T09:46:35.952Z,32.99
2018-10-09T09:47:43.844Z,32.87
2018-10-09T09:48:34.215Z,32.84
2018-10-09T09:50:45.294Z,32.84
2018-10-09T09:51:48.111Z,32.89
2018-10-09T09:52:44.988Z,32.86
2018-10-09T09:54:34.457Z,32.83
2018-10-09T09:56:45.319Z,32.75
2018-10-09T09:57:44.309Z,32.75
2018-10-09T09:58:39.805Z,32.79
2018-10-09T09:59:38.072Z,32.74
2018-10-09T10:00:41.719Z,32.69
2018-10-09T10:02:34.917Z,32.68
2018-10-09T10:03:45.718Z,32.65
2018-10-09T10:05:38.619Z,32.74
2018-10-09T10:06:39.642Z,32.60
2018-10-09T10:07:31.718Z,32.65
2018-10-09T10:08:36.792Z,32.60
2018-10-09T10:09:37.298Z,32.62
2018-10-09T10:10:51.030Z,32.61
2018-10-09T10:13:43.676Z,32.61
2018-10-09T10:14:44.807Z,32.62
2018-10-09T10:15:48.578Z,32.61
2018-10-09T10:16:46.179Z,32.61
2018-10-09T10:17:47.487Z,32.55
2018-10-09T10:18:37.566Z,32.56
2018-10-09T10:21:47.303Z,32.55
2018-10-09T10:22:38.909Z,32.55
2018-10-09T10:23:46.403Z,32.50
2018-10-09T10:25:37.322Z,32.49
2018-10-09T10:26:44.671Z,32.52
2018-10-09T10:27:36.594Z,32.43
2018-10-09T10:28:37.612Z,32.38
2018-10-09T10:30:43.261Z,32.30
2018-10-09T10:31:36.239Z,32.31
2018-10-09T10:32:42.248Z,32.33
2018-10-09T10:33:47.375Z,32.33
2018-10-09T10:34:48.398Z,32.28
2018-10-09T10:35:45.767Z,32.25
2018-10-09T10:36:41.265Z,32.33
2018-10-09T10:37:39.821Z,32.33
2018-10-09T10:38:41.151Z,32.31
2018-10-09T10:39:37.675Z,32.23
2018-10-09T10:41:40.559Z,32.30
2018-10-09T10:43:45.486Z,32.30
2018-10-09T10:44:46.422Z,32.28
2018-10-09T10:45:43.771Z,32.27
2018-10-09T10:46:43.045Z,32.35
2018-10-09T10:47:42.954Z,32.23
2018-10-09T10:48:41.431Z,32.27
2018-10-09T10:50:42.871Z,32.25
2018-10-09T10:51:47.018Z,32.28
2018-10-09T10:52:43.291Z,32.27
2018-10-09T10:53:42.894Z,32.35
2018-10-09T10:55:41.362Z,32.35
2018-10-09T10:56:44.228Z,32.28
2018-10-09T10:57:52.638Z,32.28
2018-10-09T10:59:47.322Z,32.27
2018-10-09T11:00:45.255Z,32.28
2018-10-09T11:03:41.607Z,32.23
2018-10-09T11:06:44.798Z,32.13
2018-10-09T11:07:35.082Z,32.05
2018-10-09T11:08:49.208Z,32.03
2018-10-09T11:09:39.091Z,31.97
2018-10-09T11:10:42.772Z,31.93
2018-10-09T11:11:36.338Z,31.94
2018-10-09T11:12:40.747Z,31.94
2018-10-09T11:13:47.611Z,31.80
2018-10-09T11:14:43.680Z,31.77
2018-10-09T11:15:39.766Z,31.75
2018-10-09T11:16:42.194Z,31.66
2018-10-09T11:17:39.276Z,31.74
2018-10-09T11:18:38.219Z,31.59
2018-10-09T11:19:37.276Z,31.58
2018-10-09T11:20:46.107Z,31.56
2018-10-09T11:21:39.811Z,31.52
2018-10-09T11:22:47.136Z,31.58
2018-10-09T11:23:38.774Z,31.46
2018-10-09T11:24:44.603Z,31.43
2018-10-09T11:25:41.024Z,31.48
2018-10-09T11:28:43.772Z,31.48
2018-10-09T11:29:43.708Z,31.48
2018-10-09T11:31:41.050Z,31.41
2018-10-09T11:32:39.502Z,31.31
2018-10-09T11:33:42.275Z,31.30
2018-10-09T11:34:43.282Z,31.43
2018-10-09T11:35:46.505Z,31.34
2018-10-09T11:36:43.542Z,31.30
2018-10-09T11:37:42.728Z,31.19
2018-10-09T11:38:43.779Z,31.22
2018-10-09T11:39:49.295Z,31.21
2018-10-09T11:40:41.779Z,31.19
2018-10-09T11:42:39.945Z,31.14
2018-10-09T11:44:40.409Z,31.12
2018-10-09T11:45:45.123Z,31.03
2018-10-09T11:46:48.401Z,31.04
2018-10-09T11:47:45.962Z,30.99
2018-10-09T11:48:50.055Z,31.00
2018-10-09T11:50:46.496Z,31.00
2018-10-09T11:52:35.794Z,30.85
2018-10-09T11:53:44.964Z,31.02
2018-10-09T11:54:45.176Z,30.78
2018-10-09T11:55:42.936Z,30.74
2018-10-09T11:56:40.076Z,30.80
2018-10-09T11:57:44.807Z,30.82
2018-10-09T11:58:45.432Z,30.85
2018-10-09T11:59:46.030Z,30.91
2018-10-09T12:00:43.795Z,30.87
2018-10-09T12:02:39.599Z,30.78
2018-10-09T12:03:45.547Z,30.93
2018-10-09T12:04:43.596Z,30.88
2018-10-09T12:05:49.580Z,30.82
2018-10-09T12:06:45.047Z,30.88
2018-10-09T12:07:38.595Z,30.80
2018-10-09T12:08:38.803Z,30.80
2018-10-09T12:09:45.303Z,30.74
2018-10-09T12:10:37.314Z,30.67
2018-10-09T12:12:41.292Z,30.66
2018-10-09T12:13:53.813Z,30.65
2018-10-09T12:15:46.853Z,30.57
2018-10-09T12:16:41.921Z,30.51
2018-10-09T12:18:37.639Z,30.56
2018-10-09T12:21:44.619Z,30.52
2018-10-09T12:22:43.397Z,30.50
2018-10-09T12:23:40.323Z,30.48
2018-10-09T12:25:43.225Z,30.59
2018-10-09T12:26:41.815Z,30.50
2018-10-09T12:28:45.369Z,30.59
2018-10-09T12:30:44.155Z,30.47
2018-10-09T12:31:45.287Z,30.50
2018-10-09T12:33:40.901Z,30.52
2018-10-09T12:35:42.139Z,30.47
2018-10-09T12:36:43.469Z,30.45
2018-10-09T12:38:43.994Z,30.45
2018-10-09T12:40:50.052Z,30.45
2018-10-09T12:41:48.313Z,30.39
2018-10-09T12:42:41.157Z,30.43
2018-10-09T12:43:47.651Z,30.40
2018-10-09T12:44:36.816Z,30.39
2018-10-09T12:45:45.164Z,30.40
2018-10-09T12:46:42.702Z,30.48
2018-10-09T12:47:42.104Z,30.44
2018-10-09T12:48:47.531Z,30.39
2018-10-09T12:49:51.539Z,30.39
2018-10-09T12:50:51.030Z,30.39
2018-10-09T12:51:33.418Z,30.48
2018-10-09T12:53:40.835Z,30.37
2018-10-09T12:54:42.036Z,30.36
2018-10-09T12:55:45.327Z,30.39
2018-10-09T12:57:43.279Z,30.37
2018-10-09T12:58:41.035Z,30.40
2018-10-09T13:01:43.511Z,30.29
2018-10-09T13:02:44.438Z,30.24
2018-10-09T13:03:47.209Z,30.29
2018-10-09T13:05:46.911Z,30.39
2018-10-09T13:06:48.040Z,30.32
2018-10-09T13:07:44.900Z,30.40
2018-10-09T13:08:44.573Z,30.44
2018-10-09T13:09:48.061Z,30.37
2018-10-09T13:10:47.460Z,30.45
2018-10-09T13:11:35.581Z,30.34
2018-10-09T13:13:43.066Z,30.43
2018-10-09T13:15:43.493Z,30.29
2018-10-09T13:16:41.841Z,30.28
2018-10-09T13:17:48.122Z,30.31
2018-10-09T13:18:45.448Z,30.34
2018-10-09T13:19:48.224Z,30.36
2018-10-09T13:20:39.842Z,30.24
2018-10-09T13:21:46.850Z,30.24
2018-10-09T13:22:42.822Z,30.27
2018-10-09T13:24:43.548Z,30.21
2018-10-09T13:25:47.743Z,30.18
2018-10-09T13:26:44.346Z,30.14
2018-10-09T13:27:43.556Z,30.20
2018-10-09T13:28:38.290Z,30.07
2018-10-09T13:29:47.263Z,30.13
2018-10-09T13:31:45.218Z,30.21
2018-10-09T13:32:46.349Z,30.21
2018-10-09T13:33:46.356Z,30.13
2018-10-09T13:34:47.181Z,30.18
2018-10-09T13:35:40.860Z,30.20
2018-10-09T13:37:46.684Z,30.07
2018-10-09T13:38:48.434Z,30.09
2018-10-09T13:40:41.685Z,30.07
2018-10-09T13:41:53.467Z,30.06
2018-10-09T13:42:42.824Z,30.09
2018-10-09T13:43:39.405Z,30.14
2018-10-09T13:44:43.472Z,30.16
2018-10-09T13:45:50.625Z,30.09
2018-10-09T13:47:36.989Z,30.00
2018-10-09T13:48:48.697Z,30.05
2018-10-09T13:49:45.073Z,29.95
2018-10-09T13:50:47.707Z,29.97
2018-10-09T13:51:47.184Z,30.06
2018-10-09T13:52:45.871Z,30.03
2018-10-09T13:53:46.067Z,29.97
2018-10-09T13:54:42.891Z,30.05
2018-10-09T13:55:43.819Z,29.99
2018-10-09T13:57:42.359Z,30.03
2018-10-09T13:58:39.358Z,29.92
2018-10-09T13:59:42.223Z,29.92
2018-10-09T14:00:40.894Z,29.94
2018-10-09T14:02:42.863Z,29.90
2018-10-09T14:03:40.904Z,29.85
2018-10-09T14:05:46.364Z,29.88
2018-10-09T14:07:39.517Z,29.90
2018-10-09T14:08:46.145Z,29.90
2018-10-09T14:09:46.057Z,29.97
2018-10-09T14:11:40.121Z,30.05
2018-10-09T14:12:39.514Z,29.94
2018-10-09T14:13:49.366Z,29.92
2018-10-09T14:14:47.316Z,29.87
2018-10-09T14:16:45.174Z,29.83
2018-10-09T14:17:47.939Z,29.95
2018-10-09T14:18:46.207Z,29.94
2018-10-09T14:19:43.651Z,29.95
2018-10-09T14:20:48.163Z,29.99
2018-10-09T14:22:47.410Z,29.92
2018-10-09T14:24:45.521Z,30.00
2018-10-09T14:25:44.807Z,29.94
2018-10-09T14:27:52.705Z,30.05
2018-10-09T14:28:44.219Z,30.07
2018-10-09T14:29:43.603Z,29.97
2018-10-09T14:30:43.876Z,29.95
2018-10-09T14:31:46.695Z,29.91
2018-10-09T14:32:46.803Z,29.78
2018-10-09T14:33:41.379Z,29.81
2018-10-09T14:34:45.223Z,29.84
2018-10-09T14:35:43.380Z,29.87
2018-10-09T14:36:44.975Z,29.90
2018-10-09T14:37:39.253Z,29.92
2018-10-09T14:38:46.732Z,29.85
2018-10-09T14:39:52.062Z,29.92
2018-10-09T14:40:41.312Z,29.84
2018-10-09T14:41:46.335Z,29.90
2018-10-09T14:42:46.348Z,29.84
2018-10-09T14:43:47.071Z,29.87
2018-10-09T14:44:46.461Z,29.91
2018-10-09T14:45:43.695Z,29.95
2018-10-09T14:46:43.396Z,29.94
2018-10-09T14:48:48.394Z,29.94
2018-10-09T14:49:40.352Z,29.88
2018-10-09T14:51:47.834Z,29.91
2018-10-09T14:52:51.224Z,29.81
2018-10-09T14:54:45.897Z,29.94
2018-10-09T14:55:44.897Z,29.92
2018-10-09T14:56:48.678Z,29.94
2018-10-09T14:57:42.237Z,29.90
2018-10-09T14:59:43.472Z,29.78
2018-10-09T15:00:47.878Z,29.85
2018-10-09T15:01:49.732Z,29.84
2018-10-09T15:02:48.301Z,29.87
2018-10-09T15:03:49.896Z,29.90
2018-10-09T15:04:42.900Z,29.78
2018-10-09T15:05:49.041Z,29.92
2018-10-09T15:06:46.891Z,29.85
2018-10-09T15:08:41.277Z,29.88
2018-10-09T15:10:49.879Z,29.87
2018-10-09T15:11:48.870Z,29.78
2018-10-09T15:12:48.358Z,29.76
2018-10-09T15:13:45.186Z,29.90
2018-10-09T15:14:43.966Z,29.91
2018-10-09T15:15:43.403Z,29.78
2018-10-09T15:16:43.536Z,29.84
2018-10-09T15:17:49.403Z,29.85
2018-10-09T15:18:55.153Z,29.84
2018-10-09T15:19:49.516Z,29.76
2018-10-09T15:20:49.227Z,29.81
2018-10-09T15:22:46.680Z,29.84
2018-10-09T15:23:44.432Z,29.91
2018-10-09T15:24:49.243Z,29.84
2018-10-09T15:25:47.824Z,29.92
2018-10-09T15:26:38.411Z,29.84
2018-10-09T15:29:50.904Z,29.79
2018-10-09T15:31:46.718Z,29.90
2018-10-09T15:33:44.917Z,29.91